Time;durP1;ratioP1;P1;durP2;ratioP2;P2;SDS_P1;SDS_P2;PMS_P1;PMS_P2;Temp;Humidity;BMP_temperature;BMP_pressure;BME280_temperature;BME280_humidity;BME280_pressure;Samples;Min_cycle;Max_cycle;Signal;HPM_P1;HPM_P2
2022/06/30 00:01:07;;;;;;;;;;;12.80;99.90;;;;;;5073935;28;19962;-71
2022/06/30 00:03:34;;;;;;;;;;;12.80;99.90;;;;;;5073905;28;19908;-71
2022/06/30 00:06:01;;;;;;;;;;;12.80;99.90;;;;;;5073682;28;19967;-71
2022/06/30 00:08:27;;;;;;;;;;;12.80;99.90;;;;;;5073631;28;19931;-72
2022/06/30 00:10:54;;;;;;;;;;;12.70;99.90;;;;;;5074168;28;20246;-71
2022/06/30 00:13:20;;;;;;;;;;;12.70;99.90;;;;;;5073598;28;19994;-71
2022/06/30 00:15:48;;;;;;;;;;;12.60;99.90;;;;;;5073526;28;19912;-72
2022/06/30 00:18:14;;;;;;;;;;;12.50;99.90;;;;;;5090036;28;19915;-72
2022/06/30 00:20:41;;;;;;;;;;;12.50;99.90;;;;;;5073385;28;19916;-71
2022/06/30 00:23:08;;;;;;;;;;;12.50;99.90;;;;;;5073736;28;20311;-71
2022/06/30 00:25:34;;;;;;;;;;;12.40;99.90;;;;;;5073883;28;20365;-71
2022/06/30 00:28:01;;;;;;;;;;;12.40;99.90;;;;;;5073878;28;19908;-71
2022/06/30 00:30:28;;;;;;;;;;;12.40;99.90;;;;;;5074023;28;19908;-71
2022/06/30 00:32:54;;;;;;;;;;;12.40;99.90;;;;;;5073911;28;20023;-71
2022/06/30 00:35:21;;;;;;;;;;;12.50;99.90;;;;;;5073693;28;19908;-71
2022/06/30 00:37:48;;;;;;;;;;;12.50;99.90;;;;;;5072467;28;19930;-71
2022/06/30 00:40:15;;;;;;;;;;;12.50;99.90;;;;;;5071787;28;20357;-71
2022/06/30 00:42:41;;;;;;;;;;;12.60;99.90;;;;;;5071872;28;20419;-72
2022/06/30 00:45:08;;;;;;;;;;;12.60;99.90;;;;;;5071818;28;19908;-71
2022/06/30 00:47:35;;;;;;;;;;;12.60;99.90;;;;;;5072163;28;19951;-71
2022/06/30 00:50:02;;;;;;;;;;;12.60;99.90;;;;;;5072122;28;19908;-71
2022/06/30 00:52:29;;;;;;;;;;;12.60;99.90;;;;;;5072549;28;19930;-72
2022/06/30 00:54:57;;;;;;;;;;;12.70;99.90;;;;;;5072500;28;19912;-71
2022/06/30 00:57:23;;;;;;;;;;;12.70;99.90;;;;;;5073635;28;20369;-70
2022/06/30 00:59:52;;;;;;;;;;;12.70;99.90;;;;;;5073711;28;19908;-71
2022/06/30 01:02:19;;;;;;;;;;;12.80;99.90;;;;;;5073030;28;19917;-71
2022/06/30 01:04:47;;;;;;;;;;;12.90;99.90;;;;;;5073358;28;19912;-71
2022/06/30 01:07:18;;;;;;;;;;;13.00;99.90;;;;;;5073464;28;19961;-71
2022/06/30 01:12:44;;;;;;;;;;;13.00;99.90;;;;;;5073988;28;19962;-71
2022/06/30 01:15:14;;;;;;;;;;;12.90;99.90;;;;;;5072399;28;19917;-71
2022/06/30 01:17:41;;;;;;;;;;;12.90;99.90;;;;;;5073011;28;19930;-71
2022/06/30 01:20:08;;;;;;;;;;;12.80;99.90;;;;;;5072941;28;20361;-71
2022/06/30 01:22:35;;;;;;;;;;;12.80;99.90;;;;;;5073064;28;20353;-71
2022/06/30 01:25:02;;;;;;;;;;;12.80;99.90;;;;;;5070568;28;19915;-71
2022/06/30 01:27:28;;;;;;;;;;;12.70;99.90;;;;;;5073227;28;19912;-71
2022/06/30 01:29:56;;;;;;;;;;;12.70;99.90;;;;;;5073396;28;19962;-71
2022/06/30 01:32:23;;;;;;;;;;;12.80;99.90;;;;;;5073508;28;19958;-71
2022/06/30 01:34:49;;;;;;;;;;;12.90;99.90;;;;;;5073330;28;19915;-72
2022/06/30 01:37:16;;;;;;;;;;;13.00;99.90;;;;;;5072890;28;19920;-71
2022/06/30 01:39:42;;;;;;;;;;;13.10;99.90;;;;;;5073442;28;19913;-72
2022/06/30 01:42:09;;;;;;;;;;;13.10;99.90;;;;;;5073171;28;20368;-71
2022/06/30 01:44:36;;;;;;;;;;;13.30;99.90;;;;;;5073154;28;20250;-71
2022/06/30 01:47:03;;;;;;;;;;;13.30;99.90;;;;;;5072912;28;19909;-73
2022/06/30 01:49:29;;;;;;;;;;;13.40;99.90;;;;;;5073094;28;20385;-74
2022/06/30 01:51:56;;;;;;;;;;;13.40;99.90;;;;;;5073073;28;19912;-71
2022/06/30 01:54:23;;;;;;;;;;;13.50;99.90;;;;;;5072420;28;20280;-73
2022/06/30 01:56:50;;;;;;;;;;;13.50;99.90;;;;;;5072322;28;19909;-71
2022/06/30 01:59:17;;;;;;;;;;;13.50;99.90;;;;;;5072506;28;20349;-71
2022/06/30 02:01:43;;;;;;;;;;;13.60;99.90;;;;;;5069996;28;20365;-71
2022/06/30 02:06:54;;;;;;;;;;;13.70;99.90;;;;;;5074899;28;20054;-71
2022/06/30 02:09:21;;;;;;;;;;;13.70;99.90;;;;;;5076289;28;19909;-72
2022/06/30 02:11:48;;;;;;;;;;;13.70;99.90;;;;;;5076673;28;20284;-71
2022/06/30 02:14:14;;;;;;;;;;;13.80;99.90;;;;;;5076149;28;19912;-71
2022/06/30 02:16:41;;;;;;;;;;;13.80;99.90;;;;;;5074011;28;19912;-71
2022/06/30 02:19:08;;;;;;;;;;;13.90;99.90;;;;;;5075978;28;20352;-72
2022/06/30 02:21:34;;;;;;;;;;;13.90;99.90;;;;;;5075694;28;20321;-72
2022/06/30 02:24:01;;;;;;;;;;;13.90;99.90;;;;;;5075648;28;19908;-73
2022/06/30 02:26:27;;;;;;;;;;;13.90;99.90;;;;;;5075778;28;19915;-72
2022/06/30 02:28:54;;;;;;;;;;;13.90;99.90;;;;;;5075717;28;19954;-72
2022/06/30 02:31:21;;;;;;;;;;;14.00;99.90;;;;;;5075756;28;19932;-72
2022/06/30 02:33:47;;;;;;;;;;;14.10;99.90;;;;;;5075788;28;19924;-72
2022/06/30 02:36:14;;;;;;;;;;;14.10;99.90;;;;;;5075652;28;19912;-72
2022/06/30 02:38:40;;;;;;;;;;;14.10;99.90;;;;;;5075393;28;19929;-73
2022/06/30 02:41:07;;;;;;;;;;;14.10;99.90;;;;;;5075505;28;19912;-72
2022/06/30 02:43:34;;;;;;;;;;;14.10;99.90;;;;;;5075572;28;20361;-73
2022/06/30 02:46:00;;;;;;;;;;;14.10;99.90;;;;;;5074924;28;19920;-72
2022/06/30 02:48:27;;;;;;;;;;;14.10;99.90;;;;;;5075276;28;19909;-73
2022/06/30 02:50:53;;;;;;;;;;;14.20;99.90;;;;;;5075418;28;20373;-71
2022/06/30 02:53:21;;;;;;;;;;;14.30;99.90;;;;;;5075038;28;19916;-73
2022/06/30 02:55:48;;;;;;;;;;;14.30;99.90;;;;;;5075031;28;19913;-72
2022/06/30 02:58:15;;;;;;;;;;;14.40;99.90;;;;;;5074870;28;19915;-73
2022/06/30 03:00:42;;;;;;;;;;;14.40;99.90;;;;;;5075338;28;20074;-72
2022/06/30 03:03:08;;;;;;;;;;;14.40;99.90;;;;;;5075138;28;19913;-72
2022/06/30 03:05:35;;;;;;;;;;;14.40;99.90;;;;;;5074758;28;20012;-72
2022/06/30 03:08:02;;;;;;;;;;;14.40;99.90;;;;;;5074484;28;19913;-74
2022/06/30 03:10:28;;;;;;;;;;;14.40;99.90;;;;;;5074755;28;20315;-72
2022/06/30 03:12:55;;;;;;;;;;;14.40;99.90;;;;;;5074567;28;19995;-73
2022/06/30 03:15:22;;;;;;;;;;;14.40;99.90;;;;;;5074205;28;20337;-72
2022/06/30 03:17:48;;;;;;;;;;;14.40;99.90;;;;;;5073690;28;19908;-72
2022/06/30 03:20:15;;;;;;;;;;;14.30;99.90;;;;;;5074840;28;19915;-74
2022/06/30 03:22:42;;;;;;;;;;;14.20;99.90;;;;;;5074840;28;19913;-71
2022/06/30 03:25:08;;;;;;;;;;;14.20;99.90;;;;;;5071706;28;19955;-72
2022/06/30 03:27:35;;;;;;;;;;;14.20;99.90;;;;;;5073631;28;19914;-73
2022/06/30 03:30:02;;;;;;;;;;;14.20;99.90;;;;;;5074369;28;19931;-72
2022/06/30 03:32:28;;;;;;;;;;;14.20;99.90;;;;;;5074261;28;19909;-73
2022/06/30 03:34:55;;;;;;;;;;;14.20;99.90;;;;;;5073675;28;19919;-71
2022/06/30 03:37:22;;;;;;;;;;;14.20;99.90;;;;;;5073716;28;20412;-72
2022/06/30 03:39:48;;;;;;;;;;;14.10;99.90;;;;;;5074081;28;19915;-73
2022/06/30 03:42:15;;;;;;;;;;;14.10;99.90;;;;;;5074244;28;19924;-72
2022/06/30 03:44:42;;;;;;;;;;;14.10;99.90;;;;;;5074484;28;19951;-72
2022/06/30 03:47:08;;;;;;;;;;;14.10;99.90;;;;;;5074226;28;19912;-71
2022/06/30 03:49:35;;;;;;;;;;;14.10;99.90;;;;;;5074277;28;20269;-72
2022/06/30 03:52:02;;;;;;;;;;;14.10;99.90;;;;;;5074924;28;19909;-78
2022/06/30 03:54:28;;;;;;;;;;;14.00;99.90;;;;;;5074441;28;19915;-77
2022/06/30 03:56:55;;;;;;;;;;;14.10;99.90;;;;;;5073451;28;20014;-78
2022/06/30 03:59:22;;;;;;;;;;;14.10;99.90;;;;;;5074348;28;20342;-76
2022/06/30 04:01:48;;;;;;;;;;;14.10;99.90;;;;;;5074581;28;20012;-76
2022/06/30 04:04:15;;;;;;;;;;;14.10;99.90;;;;;;5074129;28;19915;-75
2022/06/30 04:06:42;;;;;;;;;;;14.10;99.90;;;;;;5074644;28;20388;-75
2022/06/30 04:09:09;;;;;;;;;;;14.10;99.90;;;;;;5073932;28;19995;-75
2022/06/30 04:11:36;;;;;;;;;;;14.20;99.90;;;;;;5073648;28;19912;-77
2022/06/30 04:14:02;;;;;;;;;;;14.20;99.90;;;;;;5072509;28;19943;-79
2022/06/30 04:16:29;;;;;;;;;;;14.20;99.90;;;;;;5072486;28;19962;-77
2022/06/30 04:18:55;;;;;;;;;;;14.10;99.90;;;;;;5073269;28;19908;-78
2022/06/30 04:21:22;;;;;;;;;;;14.10;99.90;;;;;;5073573;28;20392;-78
2022/06/30 04:23:49;;;;;;;;;;;14.10;99.90;;;;;;5073336;28;20289;-77
2022/06/30 04:26:15;;;;;;;;;;;14.00;99.90;;;;;;5073006;28;19912;-77
2022/06/30 04:28:42;;;;;;;;;;;14.10;99.90;;;;;;5073024;28;19912;-76
2022/06/30 04:33:53;;;;;;;;;;;14.00;99.90;;;;;;5072136;28;20352;-73
2022/06/30 04:36:20;;;;;;;;;;;14.00;99.90;;;;;;5073541;28;19917;-74
2022/06/30 04:38:47;;;;;;;;;;;13.90;99.90;;;;;;5073109;28;19998;-75
2022/06/30 04:41:25;;;;;;;;;;;13.90;99.90;;;;;;5073454;28;19920;-75
2022/06/30 04:43:52;;;;;;;;;;;14.10;99.90;;;;;;5074000;28;20258;-75
2022/06/30 04:46:20;;;;;;;;;;;14.10;99.90;;;;;;5072294;28;19912;-76
2022/06/30 04:48:46;;;;;;;;;;;14.10;99.90;;;;;;5072896;28;19956;-76
2022/06/30 04:51:13;;;;;;;;;;;14.00;99.90;;;;;;5073075;28;19912;-76
2022/06/30 04:53:43;;;;;;;;;;;14.10;99.90;;;;;;5073200;28;19931;-77
2022/06/30 04:56:10;;;;;;;;;;;14.00;99.90;;;;;;5073023;28;20288;-76
2022/06/30 04:58:37;;;;;;;;;;;14.00;99.90;;;;;;5072990;28;19958;-75
2022/06/30 05:01:04;;;;;;;;;;;14.00;99.90;;;;;;5072863;28;19916;-78
2022/06/30 05:03:31;;;;;;;;;;;13.90;99.90;;;;;;5073047;28;19916;-76
2022/06/30 05:05:59;;;;;;;;;;;13.90;99.90;;;;;;5072323;28;19916;-75
2022/06/30 05:08:26;;;;;;;;;;;13.90;99.90;;;;;;5072580;28;20284;-75
2022/06/30 05:10:52;;;;;;;;;;;14.00;99.90;;;;;;5072405;28;19908;-74
2022/06/30 05:13:19;;;;;;;;;;;14.00;99.90;;;;;;5072239;28;20360;-75
2022/06/30 05:15:46;;;;;;;;;;;14.00;99.90;;;;;;5073047;28;19916;-75
2022/06/30 05:18:13;;;;;;;;;;;14.10;99.90;;;;;;5073382;28;19956;-73
2022/06/30 05:20:40;;;;;;;;;;;14.10;99.90;;;;;;5073151;28;20261;-74
2022/06/30 05:23:07;;;;;;;;;;;14.10;99.90;;;;;;5073185;28;19912;-74
2022/06/30 05:28:21;;;;;;;;;;;14.10;99.90;;;;;;5070429;28;19958;-76
2022/06/30 05:30:51;;;;;;;;;;;14.10;99.90;;;;;;5077151;28;19996;-79
2022/06/30 05:33:21;;;;;;;;;;;14.10;99.90;;;;;;5081627;28;19987;-77
2022/06/30 05:35:48;;;;;;;;;;;14.10;99.90;;;;;;5080647;28;19912;-75
2022/06/30 05:38:16;;;;;;;;;;;14.10;99.90;;;;;;5072475;28;19920;-76
2022/06/30 05:40:42;;;;;;;;;;;14.00;99.90;;;;;;5072833;28;19920;-76
2022/06/30 05:43:12;;;;;;;;;;;14.10;99.90;;;;;;5076937;28;20253;-75
2022/06/30 05:45:39;;;;;;;;;;;14.10;99.90;;;;;;5076647;28;19977;-75
2022/06/30 05:48:05;;;;;;;;;;;14.10;99.90;;;;;;5073868;28;19908;-77
2022/06/30 05:50:32;;;;;;;;;;;14.10;99.90;;;;;;5076749;28;20281;-76
2022/06/30 05:52:59;;;;;;;;;;;14.10;99.90;;;;;;5076513;28;19954;-75
2022/06/30 05:55:25;;;;;;;;;;;14.10;99.90;;;;;;5076359;28;20639;-72
2022/06/30 05:57:52;;;;;;;;;;;14.10;99.90;;;;;;5076511;28;19909;-74
2022/06/30 06:00:19;;;;;;;;;;;14.10;99.90;;;;;;5076528;28;20049;-72
2022/06/30 06:02:46;;;;;;;;;;;14.10;99.90;;;;;;5076454;28;20278;-75
2022/06/30 06:05:13;;;;;;;;;;;14.10;99.90;;;;;;5076600;28;20281;-73
2022/06/30 06:07:40;;;;;;;;;;;14.10;99.90;;;;;;5076923;28;19963;-74
2022/06/30 06:10:07;;;;;;;;;;;14.00;99.90;;;;;;5076428;28;19917;-74
2022/06/30 06:12:34;;;;;;;;;;;14.00;99.90;;;;;;5076305;28;19908;-75
2022/06/30 06:15:01;;;;;;;;;;;14.00;99.90;;;;;;5075434;28;19919;-75
2022/06/30 06:17:29;;;;;;;;;;;13.90;99.90;;;;;;5075306;28;19924;-77
2022/06/30 06:19:55;;;;;;;;;;;13.80;99.90;;;;;;5075590;28;19936;-76
2022/06/30 06:22:22;;;;;;;;;;;13.70;99.90;;;;;;5075893;28;19975;-76
2022/06/30 06:24:49;;;;;;;;;;;13.70;99.90;;;;;;5076503;28;20377;-75
2022/06/30 06:27:16;;;;;;;;;;;13.70;99.90;;;;;;5076395;28;20007;-76
2022/06/30 06:29:42;;;;;;;;;;;13.70;99.90;;;;;;5076297;28;19909;-76
2022/06/30 06:32:09;;;;;;;;;;;13.70;99.90;;;;;;5074987;28;19944;-75
2022/06/30 06:34:36;;;;;;;;;;;13.60;99.90;;;;;;5075848;28;19908;-77
2022/06/30 06:37:03;;;;;;;;;;;13.50;99.90;;;;;;5074957;28;19915;-77
2022/06/30 06:39:29;;;;;;;;;;;13.50;99.90;;;;;;5075321;28;19956;-76
2022/06/30 06:41:56;;;;;;;;;;;13.40;99.90;;;;;;5074955;28;19967;-77
2022/06/30 06:44:23;;;;;;;;;;;13.40;99.90;;;;;;5074867;28;20007;-77
2022/06/30 06:46:49;;;;;;;;;;;13.40;99.90;;;;;;5075357;28;19944;-77
2022/06/30 06:49:16;;;;;;;;;;;13.40;99.90;;;;;;5075377;28;19912;-77
2022/06/30 06:51:43;;;;;;;;;;;13.30;99.90;;;;;;5075900;28;19916;-76
2022/06/30 06:54:09;;;;;;;;;;;13.20;99.90;;;;;;5075106;28;20039;-78
2022/06/30 06:56:36;;;;;;;;;;;13.20;99.90;;;;;;5075772;28;19920;-78
2022/06/30 06:59:03;;;;;;;;;;;13.20;99.90;;;;;;5075339;28;19912;-77
2022/06/30 07:01:29;;;;;;;;;;;13.20;99.90;;;;;;5075162;28;20307;-78
2022/06/30 07:03:56;;;;;;;;;;;13.20;99.90;;;;;;5075421;28;20415;-79
2022/06/30 07:06:24;;;;;;;;;;;13.10;99.90;;;;;;5075452;28;19970;-76
2022/06/30 07:08:50;;;;;;;;;;;13.10;99.90;;;;;;5074994;28;19916;-77
2022/06/30 07:11:17;;;;;;;;;;;13.10;99.90;;;;;;5075195;28;20396;-75
2022/06/30 07:13:43;;;;;;;;;;;13.10;99.90;;;;;;5074168;28;19912;-75
2022/06/30 07:16:10;;;;;;;;;;;13.10;99.90;;;;;;5076505;28;19995;-76
2022/06/30 07:18:37;;;;;;;;;;;13.10;99.90;;;;;;5073918;28;20316;-77
2022/06/30 07:21:04;;;;;;;;;;;13.00;99.90;;;;;;5075794;28;19916;-78
2022/06/30 07:23:30;;;;;;;;;;;13.00;99.90;;;;;;5075536;28;19931;-78
2022/06/30 07:25:57;;;;;;;;;;;12.90;99.90;;;;;;5075250;28;19912;-73
2022/06/30 07:28:24;;;;;;;;;;;13.00;99.90;;;;;;5075163;28;19909;-76
2022/06/30 07:30:52;;;;;;;;;;;12.90;99.90;;;;;;5074067;28;19919;-77
2022/06/30 07:33:18;;;;;;;;;;;12.90;99.90;;;;;;5073830;28;20292;-73
2022/06/30 07:35:46;;;;;;;;;;;12.80;99.90;;;;;;5074326;28;19948;-74
2022/06/30 07:38:13;;;;;;;;;;;12.80;99.90;;;;;;5074255;28;19965;-74
2022/06/30 07:40:39;;;;;;;;;;;12.70;99.90;;;;;;5055564;28;19924;-74
2022/06/30 07:43:06;;;;;;;;;;;12.70;99.90;;;;;;5056949;28;19974;-74
2022/06/30 07:45:32;;;;;;;;;;;12.70;99.90;;;;;;5056702;28;19913;-72
2022/06/30 07:47:59;;;;;;;;;;;12.70;99.90;;;;;;5057417;28;19978;-73
2022/06/30 07:50:26;;;;;;;;;;;12.60;99.90;;;;;;5055630;28;19909;-74
2022/06/30 07:52:52;;;;;;;;;;;12.60;99.90;;;;;;5055419;28;20400;-74
2022/06/30 07:55:19;;;;;;;;;;;12.50;99.90;;;;;;5053808;28;19948;-74
2022/06/30 07:57:47;;;;;;;;;;;12.50;99.90;;;;;;5057882;28;19916;-73
2022/06/30 08:00:13;;;;;;;;;;;12.50;99.90;;;;;;5056299;28;20269;-73
2022/06/30 08:02:40;;;;;;;;;;;12.40;99.90;;;;;;5056367;28;19944;-72
2022/06/30 08:05:07;;;;;;;;;;;12.40;99.90;;;;;;5054776;28;19948;-73
2022/06/30 08:07:34;;;;;;;;;;;12.30;99.90;;;;;;5054475;28;20259;-73
2022/06/30 08:10:01;;;;;;;;;;;12.30;99.90;;;;;;5053388;28;19913;-73
2022/06/30 08:12:28;;;;;;;;;;;12.20;99.90;;;;;;5053830;28;19909;-73
2022/06/30 08:14:54;;;;;;;;;;;12.20;99.90;;;;;;5057837;28;19920;-74
2022/06/30 08:17:21;;;;;;;;;;;12.10;99.90;;;;;;5054367;28;19947;-74
2022/06/30 08:19:48;;;;;;;;;;;12.10;99.90;;;;;;5053593;28;19974;-72
2022/06/30 08:22:14;;;;;;;;;;;12.00;99.90;;;;;;5056878;28;19917;-73
2022/06/30 08:24:41;;;;;;;;;;;12.00;99.90;;;;;;5056633;28;19909;-74
2022/06/30 08:27:08;;;;;;;;;;;12.00;99.90;;;;;;5057696;28;20265;-73
2022/06/30 08:29:34;;;;;;;;;;;12.00;99.90;;;;;;5055342;28;20325;-73
2022/06/30 08:32:01;;;;;;;;;;;12.00;99.90;;;;;;5056276;28;20022;-74
2022/06/30 08:34:28;;;;;;;;;;;11.90;99.90;;;;;;5054198;28;19909;-75
2022/06/30 08:36:55;;;;;;;;;;;11.90;99.90;;;;;;5054223;28;19913;-74
2022/06/30 08:42:06;;;;;;;;;;;11.90;99.90;;;;;;5058084;28;19982;-73
2022/06/30 08:44:37;;;;;;;;;;;11.80;99.90;;;;;;5054810;28;21588;-73
2022/06/30 08:47:05;;;;;;;;;;;11.80;99.90;;;;;;5057744;28;20651;-72
2022/06/30 08:49:32;;;;;;;;;;;11.80;99.90;;;;;;5061133;28;19908;-72
2022/06/30 08:51:59;;;;;;;;;;;11.80;99.90;;;;;;5073300;28;19913;-72
2022/06/30 08:54:27;;;;;;;;;;;11.80;99.90;;;;;;5073647;28;20373;-74
2022/06/30 08:56:54;;;;;;;;;;;11.80;99.90;;;;;;5068506;28;19912;-73
2022/06/30 08:59:22;;;;;;;;;;;11.80;99.90;;;;;;5066614;28;19913;-73
2022/06/30 09:01:49;;;;;;;;;;;11.80;99.90;;;;;;5056080;28;19923;-74
2022/06/30 09:04:17;;;;;;;;;;;11.80;99.90;;;;;;5054727;28;20357;-74
2022/06/30 09:06:44;;;;;;;;;;;11.80;99.90;;;;;;5054372;28;20281;-72
2022/06/30 09:09:11;;;;;;;;;;;11.80;99.90;;;;;;5053892;28;20384;-72
2022/06/30 09:11:58;;;;;;;;;;;11.80;99.90;;;;;;5053418;28;20005;-74
2022/06/30 09:14:31;;;;;;;;;;;11.80;99.90;;;;;;5054229;28;20278;-74
2022/06/30 09:16:58;;;;;;;;;;;11.70;99.90;;;;;;5054414;28;19962;-73
2022/06/30 09:19:24;;;;;;;;;;;11.70;99.90;;;;;;5056315;28;19916;-74
2022/06/30 09:22:10;;;;;;;;;;;11.70;99.90;;;;;;5054249;28;19940;-74
2022/06/30 09:24:37;;;;;;;;;;;11.80;99.90;;;;;;5053691;28;19912;-73
2022/06/30 09:27:19;;;;;;;;;;;11.80;99.90;;;;;;5053874;28;19916;-73
2022/06/30 09:29:56;;;;;;;;;;;12.00;99.90;;;;;;5053008;28;19912;-74
2022/06/30 09:32:23;;;;;;;;;;;12.00;99.90;;;;;;5055154;28;19913;-73
2022/06/30 09:34:50;;;;;;;;;;;12.10;99.90;;;;;;5054721;28;19913;-74
2022/06/30 09:37:19;;;;;;;;;;;12.10;99.90;;;;;;5055532;28;19913;-72
2022/06/30 09:39:46;;;;;;;;;;;12.10;99.90;;;;;;5054016;28;19921;-72
2022/06/30 09:42:13;;;;;;;;;;;12.00;99.90;;;;;;5054146;28;19925;-73
2022/06/30 09:44:40;;;;;;;;;;;12.00;99.90;;;;;;5055865;28;19909;-74
2022/06/30 09:47:08;;;;;;;;;;;12.00;99.90;;;;;;5056111;28;19913;-73
2022/06/30 09:49:36;;;;;;;;;;;12.00;99.90;;;;;;5054292;28;19917;-73
2022/06/30 09:52:05;;;;;;;;;;;12.00;99.90;;;;;;5055141;28;19909;-74
2022/06/30 09:54:33;;;;;;;;;;;12.00;99.90;;;;;;5053473;28;19936;-74
2022/06/30 09:57:03;;;;;;;;;;;12.00;99.90;;;;;;5053529;28;19909;-72
2022/06/30 09:59:30;;;;;;;;;;;11.90;99.90;;;;;;5052689;28;19908;-73
2022/06/30 10:01:58;;;;;;;;;;;11.90;99.90;;;;;;5056925;28;19921;-72
2022/06/30 10:04:26;;;;;;;;;;;11.80;99.90;;;;;;5054411;28;19909;-74
2022/06/30 10:06:53;;;;;;;;;;;11.80;99.90;;;;;;5055229;28;19921;-73
2022/06/30 10:09:20;;;;;;;;;;;11.80;99.90;;;;;;5053377;28;20412;-74
2022/06/30 10:11:47;;;;;;;;;;;11.80;99.90;;;;;;5052865;28;19913;-74
2022/06/30 10:14:15;;;;;;;;;;;11.70;99.90;;;;;;5052009;28;19932;-73
2022/06/30 10:16:43;;;;;;;;;;;11.80;99.90;;;;;;5054745;28;19909;-72
2022/06/30 10:19:10;;;;;;;;;;;11.80;99.90;;;;;;5056717;28;19908;-73
2022/06/30 10:21:37;;;;;;;;;;;11.90;99.90;;;;;;5054073;28;20285;-74
2022/06/30 10:24:05;;;;;;;;;;;11.90;99.90;;;;;;5069296;28;19944;-72
2022/06/30 10:29:18;;;;;;;;;;;12.00;99.90;;;;;;5074368;28;19915;-74
2022/06/30 10:32:08;;;;;;;;;;;12.00;99.90;;;;;;5075449;28;19958;-73
2022/06/30 10:34:38;;;;;;;;;;;12.10;99.90;;;;;;5070372;28;19913;-73
2022/06/30 10:37:08;;;;;;;;;;;12.10;99.90;;;;;;5059546;28;19998;-72
2022/06/30 10:39:38;;;;;;;;;;;12.10;99.90;;;;;;5057338;28;19924;-74
2022/06/30 10:42:05;;;;;;;;;;;12.10;99.90;;;;;;5057727;28;19964;-74
2022/06/30 10:44:32;;;;;;;;;;;12.10;99.90;;;;;;5056361;28;19962;-74
2022/06/30 10:46:59;;;;;;;;;;;12.10;99.90;;;;;;5055768;28;19990;-74
2022/06/30 10:49:27;;;;;;;;;;;12.10;99.90;;;;;;5058250;28;19945;-73
2022/06/30 10:52:17;;;;;;;;;;;12.10;99.90;;;;;;5057341;28;19908;-73
2022/06/30 10:54:47;;;;;;;;;;;12.10;99.90;;;;;;5056985;28;20358;-73
2022/06/30 10:57:16;;;;;;;;;;;12.10;99.90;;;;;;5064328;28;19963;-73
2022/06/30 10:59:43;;;;;;;;;;;12.00;99.90;;;;;;5064186;28;20387;-73
2022/06/30 11:02:09;;;;;;;;;;;11.90;99.90;;;;;;5059318;28;19917;-73
2022/06/30 11:04:37;;;;;;;;;;;11.80;99.90;;;;;;5058976;28;20381;-73
2022/06/30 11:07:07;;;;;;;;;;;11.80;99.90;;;;;;5060891;28;19909;-74
2022/06/30 11:09:49;;;;;;;;;;;11.80;99.90;;;;;;5062898;28;20011;-73
2022/06/30 11:12:18;;;;;;;;;;;11.80;99.90;;;;;;5059578;28;19909;-73
2022/06/30 11:14:54;;;;;;;;;;;11.70;99.90;;;;;;5061222;28;19912;-73
2022/06/30 11:17:25;;;;;;;;;;;11.70;99.90;;;;;;5058818;28;19916;-73
2022/06/30 11:20:02;;;;;;;;;;;11.70;99.90;;;;;;5060062;28;19930;-73
2022/06/30 11:22:29;;;;;;;;;;;11.70;99.90;;;;;;5058775;28;19921;-73
2022/06/30 11:25:01;;;;;;;;;;;11.70;99.90;;;;;;5067349;28;19939;-73
2022/06/30 11:27:30;;;;;;;;;;;11.70;99.90;;;;;;5058694;28;19909;-74
2022/06/30 11:29:58;;;;;;;;;;;11.70;99.90;;;;;;5059328;28;19913;-74
2022/06/30 11:32:25;;;;;;;;;;;11.70;99.90;;;;;;5064554;28;19913;-74
2022/06/30 11:34:52;;;;;;;;;;;11.70;99.90;;;;;;5057654;28;19909;-74
2022/06/30 11:37:35;;;;;;;;;;;11.60;99.90;;;;;;5062283;28;20357;-73
2022/06/30 11:40:04;;;;;;;;;;;11.60;99.90;;;;;;5060921;28;19917;-73
2022/06/30 11:42:31;;;;;;;;;;;11.60;99.90;;;;;;5061060;28;19917;-72
2022/06/30 11:44:58;;;;;;;;;;;11.60;99.90;;;;;;5059302;28;20299;-72
2022/06/30 11:47:28;;;;;;;;;;;11.60;99.90;;;;;;5061976;28;19916;-72
2022/06/30 11:49:57;;;;;;;;;;;11.60;99.90;;;;;;5067001;28;19915;-72
2022/06/30 11:52:25;;;;;;;;;;;11.60;99.90;;;;;;5061364;28;20466;-74
2022/06/30 11:54:53;;;;;;;;;;;11.50;99.90;;;;;;5061377;28;20012;-74
2022/06/30 11:57:22;;;;;;;;;;;11.50;99.90;;;;;;5070829;28;19909;-73
2022/06/30 11:59:51;;;;;;;;;;;11.50;99.90;;;;;;5077390;28;19909;-74
2022/06/30 12:02:19;;;;;;;;;;;11.40;99.90;;;;;;5085967;28;19916;-73
2022/06/30 12:04:51;;;;;;;;;;;11.40;99.90;;;;;;5078339;28;20281;-73
2022/06/30 12:07:18;;;;;;;;;;;11.40;99.90;;;;;;5076663;28;20007;-74
2022/06/30 12:09:46;;;;;;;;;;;11.30;99.90;;;;;;5076446;28;19915;-74
2022/06/30 12:12:13;;;;;;;;;;;11.40;99.90;;;;;;5088670;28;19919;-74
2022/06/30 12:14:40;;;;;;;;;;;11.40;99.90;;;;;;5075184;28;19909;-73
2022/06/30 12:17:08;;;;;;;;;;;11.40;99.90;;;;;;5074024;28;20531;-73
2022/06/30 12:19:35;;;;;;;;;;;11.40;99.90;;;;;;5059032;28;19913;-73
2022/06/30 12:22:03;;;;;;;;;;;11.30;99.90;;;;;;5055115;28;19917;-72
2022/06/30 12:24:29;;;;;;;;;;;11.30;99.90;;;;;;5056086;28;19909;-75
2022/06/30 12:26:57;;;;;;;;;;;11.30;99.90;;;;;;5056335;28;19916;-73
2022/06/30 12:29:25;;;;;;;;;;;11.30;99.90;;;;;;5053913;28;19909;-74
2022/06/30 12:31:58;;;;;;;;;;;11.30;99.90;;;;;;5053838;28;19916;-72
2022/06/30 12:34:25;;;;;;;;;;;11.20;99.90;;;;;;5055554;28;19909;-72
2022/06/30 12:36:56;;;;;;;;;;;11.20;99.90;;;;;;5056558;28;20306;-73
2022/06/30 12:39:22;;;;;;;;;;;11.20;99.90;;;;;;5034878;28;20447;-73
2022/06/30 12:41:49;;;;;;;;;;;11.20;99.90;;;;;;5034870;28;19917;-73
2022/06/30 12:44:16;;;;;;;;;;;11.20;99.90;;;;;;5034895;28;19909;-73
2022/06/30 12:46:47;;;;;;;;;;;11.20;99.90;;;;;;5033981;28;20012;-74
2022/06/30 12:49:21;;;;;;;;;;;11.10;99.90;;;;;;5036470;28;20352;-73
2022/06/30 12:51:48;;;;;;;;;;;11.10;99.90;;;;;;5035498;28;19939;-74
2022/06/30 12:54:18;;;;;;;;;;;11.10;99.90;;;;;;5033823;28;19913;-73
2022/06/30 12:56:50;;;;;;;;;;;11.10;99.90;;;;;;5036148;28;19909;-74
2022/06/30 12:59:18;;;;;;;;;;;11.10;99.90;;;;;;5034194;28;19952;-71
2022/06/30 13:01:46;;;;;;;;;;;11.00;99.90;;;;;;5033313;28;20043;-73
2022/06/30 13:04:16;;;;;;;;;;;11.00;99.90;;;;;;5032106;28;19913;-73
2022/06/30 13:06:44;;;;;;;;;;;11.00;99.90;;;;;;5035869;28;20269;-73
2022/06/30 13:09:12;;;;;;;;;;;11.00;99.90;;;;;;5034912;28;20007;-73
2022/06/30 13:11:44;;;;;;;;;;;11.00;99.90;;;;;;5036297;28;20342;-74
2022/06/30 13:14:11;;;;;;;;;;;11.00;99.90;;;;;;5032542;28;20247;-74
2022/06/30 13:16:38;;;;;;;;;;;11.00;99.90;;;;;;5033942;28;19913;-73
2022/06/30 13:19:07;;;;;;;;;;;11.00;99.90;;;;;;5035631;28;20000;-72
2022/06/30 13:21:34;;;;;;;;;;;11.00;99.90;;;;;;5037162;28;19940;-72
2022/06/30 13:24:01;;;;;;;;;;;11.00;99.90;;;;;;5034005;28;20388;-73
2022/06/30 13:26:29;;;;;;;;;;;11.00;99.90;;;;;;5035047;28;19916;-72
2022/06/30 13:28:55;;;;;;;;;;;11.00;99.90;;;;;;5034140;28;20397;-73
2022/06/30 13:31:23;;;;;;;;;;;11.00;99.90;;;;;;5032691;28;20289;-74
2022/06/30 13:33:53;;;;;;;;;;;11.00;99.90;;;;;;5035071;28;19909;-73
2022/06/30 13:36:20;;;;;;;;;;;10.90;99.90;;;;;;5037740;28;19932;-73
2022/06/30 13:38:53;;;;;;;;;;;10.90;99.90;;;;;;5050076;28;20468;-73
2022/06/30 13:41:19;;;;;;;;;;;10.90;99.90;;;;;;5055084;28;19983;-74
2022/06/30 13:43:46;;;;;;;;;;;10.80;99.90;;;;;;5053585;28;19913;-75
2022/06/30 13:46:14;;;;;;;;;;;10.80;99.90;;;;;;5053507;28;19919;-73
2022/06/30 13:48:41;;;;;;;;;;;10.80;99.90;;;;;;5052648;28;20007;-72
2022/06/30 13:51:07;;;;;;;;;;;10.80;99.90;;;;;;5057163;28;19917;-73
2022/06/30 13:53:34;;;;;;;;;;;10.80;99.90;;;;;;5054174;28;20373;-74
2022/06/30 13:56:01;;;;;;;;;;;10.70;99.90;;;;;;5054697;28;19909;-73
2022/06/30 13:58:28;;;;;;;;;;;10.70;99.90;;;;;;5054148;28;19999;-74
2022/06/30 14:00:55;;;;;;;;;;;10.70;99.90;;;;;;5054405;28;19917;-74
2022/06/30 14:03:22;;;;;;;;;;;10.70;99.90;;;;;;5059203;28;19909;-74
2022/06/30 14:05:50;;;;;;;;;;;10.70;99.90;;;;;;5057784;28;19908;-74
2022/06/30 14:08:18;;;;;;;;;;;10.60;99.90;;;;;;5057992;28;19967;-72
2022/06/30 14:10:44;;;;;;;;;;;10.70;99.90;;;;;;5056595;28;19919;-73
2022/06/30 14:13:11;;;;;;;;;;;10.70;99.90;;;;;;5056465;28;19909;-73
2022/06/30 14:15:38;;;;;;;;;;;10.70;99.90;;;;;;5071583;28;20373;-74
2022/06/30 14:18:05;;;;;;;;;;;10.70;99.90;;;;;;5074659;28;19915;-75
2022/06/30 14:20:32;;;;;;;;;;;10.60;99.90;;;;;;5074506;28;19931;-75
2022/06/30 14:22:59;;;;;;;;;;;10.70;99.90;;;;;;5075772;28;19928;-74
2022/06/30 14:25:26;;;;;;;;;;;10.60;99.90;;;;;;5075013;28;19943;-74
2022/06/30 14:27:53;;;;;;;;;;;10.60;99.90;;;;;;5075470;28;19949;-72
2022/06/30 14:30:21;;;;;;;;;;;10.50;99.90;;;;;;5076087;28;20475;-74
2022/06/30 14:32:48;;;;;;;;;;;10.50;99.90;;;;;;5075980;28;20427;-73
2022/06/30 14:35:15;;;;;;;;;;;10.50;99.90;;;;;;5075847;28;19908;-72